sensor_id;sensor_type;location;lat;lon;timestamp;pressure;altitude;pressure_sealevel;temperature;humidity
45939;BME280;31650;48.818;9.116;2023-11-18T00:01:58;98893.03;;;4.00;100.00
45939;BME280;31650;48.818;9.116;2023-11-18T00:16:59;98883.47;;;4.06;100.00
45939;BME280;31650;48.818;9.116;2023-11-18T00:32:00;98886.44;;;3.95;100.00
45939;BME280;31650;48.818;9.116;2023-11-18T00:47:00;98893.03;;;4.00;100.00
45939;BME280;31650;48.818;9.116;2023-11-18T01:02:02;98885.22;;;4.15;100.00
45939;BME280;31650;48.818;9.116;2023-11-18T01:17:06;98888.28;;;4.20;100.00
45939;BME280;31650;48.818;9.116;2023-11-18T01:32:06;98919.59;;;4.21;100.00
45939;BME280;31650;48.818;9.116;2023-11-18T01:47:11;98915.28;;;4.29;100.00
45939;BME280;31650;48.818;9.116;2023-11-18T02:02:12;98915.28;;;4.29;100.00
45939;BME280;31650;48.818;9.116;2023-11-18T02:17:18;98912.75;;;4.27;100.00
45939;BME280;31650;48.818;9.116;2023-11-18T02:47:32;98908.78;;;3.77;100.00
45939;BME280;31650;48.818;9.116;2023-11-18T03:02:32;98902.47;;;3.33;100.00
45939;BME280;31650;48.818;9.116;2023-11-18T03:17:32;98904.38;;;3.23;100.00
45939;BME280;31650;48.818;9.116;2023-11-18T03:32:36;98897.75;;;3.17;100.00
45939;BME280;31650;48.818;9.116;2023-11-18T03:47:52;98917.25;;;3.19;100.00
45939;BME280;31650;48.818;9.116;2023-11-18T04:03:35;98911.88;;;3.19;100.00
45939;BME280;31650;48.818;9.116;2023-11-18T04:18:36;98912.47;;;2.85;100.00
45939;BME280;31650;48.818;9.116;2023-11-18T04:33:36;98909.75;;;2.58;100.00
45939;BME280;31650;48.818;9.116;2023-11-18T04:48:36;98909.84;;;2.19;100.00
45939;BME280;31650;48.818;9.116;2023-11-18T05:03:37;98911.28;;;2.03;100.00
45939;BME280;31650;48.818;9.116;2023-11-18T05:18:37;98900.00;;;1.70;100.00
45939;BME280;31650;48.818;9.116;2023-11-18T05:49:15;98900.88;;;1.61;100.00
45939;BME280;31650;48.818;9.116;2023-11-18T06:04:15;98887.72;;;1.58;100.00
45939;BME280;31650;48.818;9.116;2023-11-18T06:19:15;98874.00;;;1.22;100.00
45939;BME280;31650;48.818;9.116;2023-11-18T06:34:16;98911.19;;;0.96;100.00
45939;BME280;31650;48.818;9.116;2023-11-18T06:49:16;98909.69;;;0.73;100.00
45939;BME280;31650;48.818;9.116;2023-11-18T07:04:17;98897.91;;;0.85;100.00
45939;BME280;31650;48.818;9.116;2023-11-18T07:19:20;98907.91;;;1.53;100.00
45939;BME280;31650;48.818;9.116;2023-11-18T07:34:20;98928.19;;;2.13;100.00
45939;BME280;31650;48.818;9.116;2023-11-18T07:49:21;98900.06;;;2.84;100.00
45939;BME280;31650;48.818;9.116;2023-11-18T08:04:26;98900.97;;;3.66;100.00
45939;BME280;31650;48.818;9.116;2023-11-18T08:19:26;98907.09;;;4.38;100.00
45939;BME280;31650;48.818;9.116;2023-11-18T08:34:27;98912.84;;;4.69;100.00
45939;BME280;31650;48.818;9.116;2023-11-18T08:49:27;98898.22;;;5.06;100.00
45939;BME280;31650;48.818;9.116;2023-11-18T09:04:34;98880.81;;;5.60;100.00
45939;BME280;31650;48.818;9.116;2023-11-18T09:19:34;98890.69;;;6.02;100.00
45939;BME280;31650;48.818;9.116;2023-11-18T09:34:35;98887.56;;;6.78;100.00
45939;BME280;31650;48.818;9.116;2023-11-18T09:49:45;98864.13;;;7.64;100.00
45939;BME280;31650;48.818;9.116;2023-11-18T10:04:45;98830.59;;;8.11;100.00
45939;BME280;31650;48.818;9.116;2023-11-18T10:19:53;98808.34;;;8.54;100.00
45939;BME280;31650;48.818;9.116;2023-11-18T10:34:56;98818.66;;;8.59;100.00
45939;BME280;31650;48.818;9.116;2023-11-18T10:49:57;98802.72;;;8.85;91.58
45939;BME280;31650;48.818;9.116;2023-11-18T11:04:57;98779.19;;;8.71;91.03
45939;BME280;31650;48.818;9.116;2023-11-18T11:20:05;98791.41;;;8.82;94.67
45939;BME280;31650;48.818;9.116;2023-11-18T11:35:32;98768.69;;;8.98;91.02
45939;BME280;31650;48.818;9.116;2023-11-18T11:50:34;98745.22;;;9.11;86.36
45939;BME280;31650;48.818;9.116;2023-11-18T12:05:37;98715.81;;;8.72;85.33
45939;BME280;31650;48.818;9.116;2023-11-18T12:20:44;98690.31;;;8.22;84.78
45939;BME280;31650;48.818;9.116;2023-11-18T12:50:55;98653.25;;;8.07;85.12
45939;BME280;31650;48.818;9.116;2023-11-18T13:05:56;98652.91;;;7.43;88.50
45939;BME280;31650;48.818;9.116;2023-11-18T13:20:57;98647.81;;;7.48;91.45
45939;BME280;31650;48.818;9.116;2023-11-18T13:35:58;98625.03;;;7.42;93.92
45939;BME280;31650;48.818;9.116;2023-11-18T13:50:59;98585.28;;;7.43;93.96
45939;BME280;31650;48.818;9.116;2023-11-18T14:05:59;98577.34;;;7.27;97.67
45939;BME280;31650;48.818;9.116;2023-11-18T14:21:02;98565.94;;;7.16;100.00
45939;BME280;31650;48.818;9.116;2023-11-18T14:36:03;98549.41;;;6.96;100.00
45939;BME280;31650;48.818;9.116;2023-11-18T14:51:05;98515.84;;;6.91;100.00
45939;BME280;31650;48.818;9.116;2023-11-18T15:06:07;98539.28;;;6.75;100.00
45939;BME280;31650;48.818;9.116;2023-11-18T15:21:10;98550.63;;;6.71;100.00
45939;BME280;31650;48.818;9.116;2023-11-18T15:36:15;98536.38;;;6.62;100.00
45939;BME280;31650;48.818;9.116;2023-11-18T15:51:25;98533.72;;;6.54;100.00
45939;BME280;31650;48.818;9.116;2023-11-18T16:06:26;98515.72;;;6.46;100.00
45939;BME280;31650;48.818;9.116;2023-11-18T16:21:27;98476.78;;;6.40;100.00
45939;BME280;31650;48.818;9.116;2023-11-18T16:36:33;98492.03;;;6.33;100.00
45939;BME280;31650;48.818;9.116;2023-11-18T16:51:34;98449.94;;;6.39;100.00
45939;BME280;31650;48.818;9.116;2023-11-18T17:06:34;98419.31;;;6.47;100.00
45939;BME280;31650;48.818;9.116;2023-11-18T17:21:37;98408.16;;;6.50;100.00
45939;BME280;31650;48.818;9.116;2023-11-18T17:36:40;98369.13;;;6.52;100.00
45939;BME280;31650;48.818;9.116;2023-11-18T17:51:41;98303.94;;;6.55;100.00
45939;BME280;31650;48.818;9.116;2023-11-18T18:06:42;98347.59;;;6.29;100.00
45939;BME280;31650;48.818;9.116;2023-11-18T18:37:16;98300.69;;;6.30;100.00
45939;BME280;31650;48.818;9.116;2023-11-18T18:52:16;98279.25;;;6.29;100.00
45939;BME280;31650;48.818;9.116;2023-11-18T19:07:17;98244.34;;;6.12;100.00
45939;BME280;31650;48.818;9.116;2023-11-18T19:22:19;98193.88;;;6.13;100.00
45939;BME280;31650;48.818;9.116;2023-11-18T19:37:21;98157.00;;;5.90;100.00
45939;BME280;31650;48.818;9.116;2023-11-18T19:52:22;98178.91;;;5.95;100.00
45939;BME280;31650;48.818;9.116;2023-11-18T20:07:22;98152.00;;;6.02;100.00
45939;BME280;31650;48.818;9.116;2023-11-18T20:22:24;98114.78;;;6.12;100.00
45939;BME280;31650;48.818;9.116;2023-11-18T20:37:26;98094.78;;;6.43;100.00
45939;BME280;31650;48.818;9.116;2023-11-18T20:52:26;98076.16;;;6.70;100.00
45939;BME280;31650;48.818;9.116;2023-11-18T21:07:27;98073.63;;;6.90;100.00
45939;BME280;31650;48.818;9.116;2023-11-18T21:22:30;98070.66;;;7.06;100.00
45939;BME280;31650;48.818;9.116;2023-11-18T21:37:31;98060.94;;;7.12;100.00
45939;BME280;31650;48.818;9.116;2023-11-18T21:52:31;98056.22;;;7.20;100.00
45939;BME280;31650;48.818;9.116;2023-11-18T22:07:32;98052.75;;;7.27;100.00
45939;BME280;31650;48.818;9.116;2023-11-18T22:22:32;98022.66;;;7.08;100.00
45939;BME280;31650;48.818;9.116;2023-11-18T22:37:34;98040.19;;;6.91;100.00
45939;BME280;31650;48.818;9.116;2023-11-18T22:52:35;98032.50;;;6.94;100.00
45939;BME280;31650;48.818;9.116;2023-11-18T23:07:38;98029.28;;;7.06;100.00
45939;BME280;31650;48.818;9.116;2023-11-18T23:22:44;98001.97;;;7.29;100.00
45939;BME280;31650;48.818;9.116;2023-11-18T23:37:45;97968.31;;;7.31;100.00
45939;BME280;31650;48.818;9.116;2023-11-18T23:52:46;97978.72;;;7.34;100.00
